createdAt,value
2018-02-11T00:01:48.468Z,86.40
2018-02-11T00:04:15.976Z,86.60
2018-02-11T00:06:43.462Z,86.40
2018-02-11T00:09:10.952Z,86.70
2018-02-11T00:11:38.446Z,86.20
2018-02-11T00:14:06.095Z,86.40
2018-02-11T00:16:33.597Z,86.00
2018-02-11T00:19:01.076Z,86.00
2018-02-11T00:21:28.572Z,86.60
2018-02-11T00:23:56.240Z,86.70
2018-02-11T00:26:23.731Z,86.60
2018-02-11T00:28:51.212Z,86.40
2018-02-11T00:31:18.709Z,86.80
2018-02-11T00:33:46.674Z,86.50
2018-02-11T00:36:14.164Z,86.50
2018-02-11T00:38:42.040Z,86.60
2018-02-11T00:41:09.533Z,86.60
2018-02-11T00:43:37.028Z,86.50
2018-02-11T00:46:04.519Z,86.40
2018-02-11T00:48:32.004Z,86.40
2018-02-11T00:50:59.580Z,86.50
2018-02-11T00:53:27.055Z,86.30
2018-02-11T00:55:54.992Z,86.60
2018-02-11T00:58:22.456Z,86.50
2018-02-11T01:00:49.952Z,87.10
2018-02-11T01:03:17.432Z,88.00
2018-02-11T01:05:44.927Z,88.40
2018-02-11T01:08:12.823Z,90.70
2018-02-11T01:10:40.316Z,90.70
2018-02-11T01:13:07.796Z,92.00
2018-02-11T01:15:35.296Z,92.60
2018-02-11T01:18:02.770Z,93.30
2018-02-11T01:20:30.261Z,93.00
2018-02-11T01:22:58.155Z,93.80
2018-02-11T01:25:25.699Z,93.80
2018-02-11T01:27:53.587Z,93.60
2018-02-11T01:30:21.454Z,93.90
2018-02-11T01:32:48.956Z,93.90
2018-02-11T01:35:16.436Z,93.90
2018-02-11T01:37:43.932Z,93.70
2018-02-11T01:40:11.409Z,93.60
2018-02-11T01:42:38.904Z,93.90
2018-02-11T01:45:06.384Z,93.80
2018-02-11T01:47:34.276Z,94.60
2018-02-11T01:50:14.096Z,94.30
2018-02-11T01:52:41.586Z,94.30
2018-02-11T01:55:09.088Z,94.30
2018-02-11T01:57:36.575Z,94.40
2018-02-11T02:00:04.060Z,94.60
2018-02-11T02:02:31.559Z,95.20
2018-02-11T02:04:59.135Z,95.30
2018-02-11T02:07:26.636Z,95.40
2018-02-11T02:09:54.106Z,95.50
2018-02-11T02:12:21.599Z,95.30
2018-02-11T02:14:49.085Z,95.60
2018-02-11T02:17:16.584Z,95.70
2018-02-11T02:19:44.068Z,95.90
2018-02-11T02:22:11.954Z,96.30
2018-02-11T02:24:39.833Z,96.50
2018-02-11T02:27:07.728Z,96.90
2018-02-11T02:29:35.372Z,96.90
2018-02-11T02:32:02.953Z,96.90
2018-02-11T02:34:30.822Z,97.30
2018-02-11T02:36:58.320Z,97.30
2018-02-11T02:39:25.853Z,97.20
2018-02-11T02:41:53.348Z,97.00
2018-02-11T02:44:20.839Z,97.20
2018-02-11T02:46:48.387Z,97.10
2018-02-11T02:49:16.255Z,97.10
2018-02-11T02:51:43.837Z,97.10
2018-02-11T02:54:11.409Z,97.10
2018-02-11T02:56:38.979Z,97.10
2018-02-11T02:59:06.480Z,97.20
2018-02-11T03:01:33.954Z,97.10
2018-02-11T03:04:01.456Z,97.10
2018-02-11T03:06:28.931Z,97.30
2018-02-11T03:08:56.428Z,97.20
2018-02-11T03:11:23.913Z,97.70
2018-02-11T03:13:51.808Z,98.20
2018-02-11T03:16:19.288Z,98.20
2018-02-11T03:18:46.784Z,98.30
2018-02-11T03:21:14.296Z,98.50
2018-02-11T03:23:41.863Z,98.70
2018-02-11T03:26:09.435Z,98.50
2018-02-11T03:28:36.934Z,98.50
2018-02-11T03:31:04.475Z,98.30
2018-02-11T03:33:31.976Z,98.20
2018-02-11T03:35:59.524Z,98.10
2018-02-11T03:38:27.417Z,97.90
2018-02-11T03:40:55.295Z,97.50
2018-02-11T03:43:22.856Z,97.50
2018-02-11T03:45:50.832Z,97.30
2018-02-11T03:48:18.333Z,97.30
2018-02-11T03:50:45.813Z,97.10
2018-02-11T03:53:13.308Z,97.30
2018-02-11T03:55:40.778Z,97.10
2018-02-11T03:58:08.280Z,97.00
2018-02-11T04:00:35.755Z,96.70
2018-02-11T04:03:03.251Z,96.90
2018-02-11T04:05:30.728Z,97.10
2018-02-11T04:07:58.258Z,97.20
2018-02-11T04:10:25.732Z,97.30
2018-02-11T04:12:53.311Z,97.80
2018-02-11T04:15:20.793Z,97.70
2018-02-11T04:17:48.686Z,97.30
2018-02-11T04:20:16.184Z,97.40
2018-02-11T04:22:43.707Z,97.30
2018-02-11T04:25:11.594Z,97.40
2018-02-11T04:27:39.476Z,97.20
2018-02-11T04:30:07.372Z,97.30
2018-02-11T04:32:34.852Z,97.30
2018-02-11T04:35:02.352Z,97.30
2018-02-11T04:37:29.827Z,97.50
2018-02-11T04:39:57.423Z,97.50
2018-02-11T04:42:24.897Z,97.40
2018-02-11T04:44:52.460Z,97.50
2018-02-11T04:47:19.944Z,97.50
2018-02-11T04:49:47.834Z,97.80
2018-02-11T04:52:15.708Z,97.80
2018-02-11T04:54:43.670Z,97.70
2018-02-11T04:57:11.152Z,97.70
2018-02-11T04:59:38.724Z,97.70
2018-02-11T05:02:06.705Z,97.80
2018-02-11T05:04:34.582Z,97.80
2018-02-11T05:07:02.050Z,97.70
2018-02-11T05:09:29.548Z,97.50
2018-02-11T05:11:57.026Z,97.80
2018-02-11T05:14:24.568Z,97.90
2018-02-11T05:16:52.044Z,97.90
2018-02-11T05:19:19.936Z,97.70
2018-02-11T05:21:47.892Z,97.60
2018-02-11T05:24:15.462Z,97.60
2018-02-11T05:26:42.937Z,97.60
2018-02-11T05:29:10.508Z,97.60
2018-02-11T05:31:37.978Z,97.50
2018-02-11T05:34:05.470Z,97.40
2018-02-11T05:36:33.536Z,97.40
2018-02-11T05:39:01.095Z,97.40
2018-02-11T05:41:28.576Z,97.30
2018-02-11T05:43:56.056Z,97.60
2018-02-11T05:46:23.957Z,97.70
2018-02-11T05:48:51.430Z,97.60
2018-02-11T05:51:18.916Z,97.90
2018-02-11T05:53:46.399Z,97.40
2018-02-11T05:56:13.900Z,97.70
2018-02-11T05:58:41.373Z,98.00
2018-02-11T06:01:08.861Z,97.90
2018-02-11T06:03:36.731Z,98.00
2018-02-11T06:06:04.607Z,97.70
2018-02-11T06:08:32.480Z,97.50
2018-02-11T06:10:59.979Z,97.50
2018-02-11T06:13:27.523Z,97.50
2018-02-11T06:15:55.101Z,97.60
2018-02-11T06:18:22.572Z,97.60
2018-02-11T06:20:50.143Z,97.60
2018-02-11T06:23:17.712Z,97.40
2018-02-11T06:25:45.284Z,97.60
2018-02-11T06:28:12.756Z,97.70
2018-02-11T06:30:40.246Z,97.80
2018-02-11T06:33:08.111Z,97.90
2018-02-11T06:35:35.988Z,98.10
2018-02-11T06:38:03.859Z,97.90
2018-02-11T06:40:31.350Z,97.90
2018-02-11T06:42:59.215Z,98.00
2018-02-11T06:45:26.711Z,98.00
2018-02-11T06:47:54.189Z,97.60
2018-02-11T06:50:21.696Z,97.90
2018-02-11T06:52:49.200Z,97.80
2018-02-11T06:55:16.715Z,98.00
2018-02-11T06:57:44.187Z,97.90
2018-02-11T07:00:11.702Z,97.90
2018-02-11T07:02:39.175Z,97.50
2018-02-11T07:05:06.664Z,97.50
2018-02-11T07:07:34.540Z,97.20
2018-02-11T07:10:02.412Z,97.10
2018-02-11T07:12:29.899Z,97.10
2018-02-11T07:14:57.856Z,97.40
2018-02-11T07:17:25.352Z,97.40
2018-02-11T07:19:52.833Z,97.70
2018-02-11T07:22:20.324Z,97.60
2018-02-11T07:24:47.840Z,97.50
2018-02-11T07:27:15.353Z,97.40
2018-02-11T07:29:42.840Z,97.30
2018-02-11T07:32:10.335Z,97.30
2018-02-11T07:34:37.807Z,97.00
2018-02-11T07:37:05.391Z,96.70
2018-02-11T07:39:32.967Z,96.60
2018-02-11T07:42:00.470Z,96.50
2018-02-11T07:44:27.952Z,96.30
2018-02-11T07:46:55.449Z,96.00
2018-02-11T07:49:22.928Z,95.60
2018-02-11T07:51:50.416Z,95.30
2018-02-11T07:54:17.891Z,94.90
2018-02-11T07:56:45.388Z,94.60
2018-02-11T07:59:12.932Z,94.20
2018-02-11T08:01:40.499Z,93.60
2018-02-11T08:04:07.980Z,93.30
2018-02-11T08:06:35.863Z,92.80
2018-02-11T08:09:03.731Z,92.60
2018-02-11T08:11:31.621Z,90.50
2018-02-11T08:13:59.487Z,90.80
2018-02-11T08:16:27.023Z,90.80
2018-02-11T08:18:54.468Z,90.80
2018-02-11T08:21:22.009Z,91.50
2018-02-11T08:23:49.890Z,91.80
2018-02-11T08:26:17.864Z,92.30
2018-02-11T08:28:45.480Z,92.30
2018-02-11T08:31:13.416Z,91.90
2018-02-11T08:33:40.886Z,91.80
2018-02-11T08:36:08.364Z,92.20
2018-02-11T08:38:36.246Z,92.30
2018-02-11T08:41:04.124Z,92.20
2018-02-11T08:43:32.016Z,92.20
2018-02-11T08:45:59.980Z,92.50
2018-02-11T08:48:27.472Z,92.50
2018-02-11T08:50:55.342Z,92.20
2018-02-11T08:53:23.308Z,92.00
2018-02-11T08:55:50.779Z,92.00
2018-02-11T08:58:18.271Z,92.60
2018-02-11T09:00:46.139Z,92.90
2018-02-11T09:03:14.108Z,93.10
2018-02-11T09:05:41.585Z,93.10
2018-02-11T09:08:09.070Z,93.20
2018-02-11T09:10:36.944Z,93.40
2018-02-11T09:13:04.844Z,93.60
2018-02-11T09:15:32.318Z,93.60
2018-02-11T09:17:59.845Z,93.80
2018-02-11T09:20:27.429Z,93.20
2018-02-11T09:22:55.394Z,86.00
2018-02-11T09:25:22.862Z,86.00
2018-02-11T09:27:50.355Z,85.90
2018-02-11T09:30:18.224Z,88.70
2018-02-11T09:32:45.715Z,88.70
2018-02-11T09:35:13.584Z,90.80
2018-02-11T09:37:41.470Z,91.50
2018-02-11T09:40:09.334Z,92.40
2018-02-11T09:42:36.815Z,92.40
2018-02-11T09:45:04.725Z,92.60
2018-02-11T09:47:32.195Z,92.60
2018-02-11T09:49:59.681Z,92.70
2018-02-11T09:52:27.179Z,92.80
2018-02-11T09:54:54.659Z,92.90
2018-02-11T09:57:22.147Z,93.20
2018-02-11T09:59:50.024Z,93.00
2018-02-11T10:02:17.993Z,92.80
2018-02-11T10:04:45.475Z,92.80
2018-02-11T10:07:13.343Z,92.70
2018-02-11T10:09:40.924Z,92.80
2018-02-11T10:12:08.399Z,92.90
2018-02-11T10:14:36.301Z,94.00
2018-02-11T10:17:03.840Z,93.80
2018-02-11T10:19:31.416Z,93.80
2018-02-11T10:21:59.279Z,94.30
2018-02-11T10:24:26.762Z,94.10
2018-02-11T10:26:54.650Z,94.40
2018-02-11T10:29:22.625Z,93.90
2018-02-11T10:31:50.113Z,93.90
2018-02-11T10:34:17.996Z,94.10
2018-02-11T10:36:45.476Z,94.10
2018-02-11T10:39:12.958Z,94.10
2018-02-11T10:41:40.487Z,94.00
2018-02-11T10:44:07.997Z,94.10
2018-02-11T10:46:35.480Z,94.40
2018-02-11T10:49:02.978Z,94.40
2018-02-11T10:51:30.451Z,94.70
2018-02-11T10:53:57.951Z,95.00
2018-02-11T10:56:25.824Z,95.60
2018-02-11T10:58:53.712Z,95.70
2018-02-11T11:01:21.578Z,95.90
2018-02-11T11:03:49.488Z,96.00
2018-02-11T11:06:16.968Z,96.10
2018-02-11T11:08:44.496Z,95.80
2018-02-11T11:11:11.967Z,95.90
2018-02-11T11:13:40.370Z,95.40
2018-02-11T11:16:08.344Z,95.80
2018-02-11T11:18:36.240Z,95.50
2018-02-11T11:21:04.118Z,95.70
2018-02-11T11:23:32.008Z,95.70
2018-02-11T11:25:59.552Z,95.70
2018-02-11T11:28:27.048Z,95.40
2018-02-11T11:30:54.529Z,95.10
2018-02-11T11:33:22.168Z,95.20
2018-02-11T11:35:49.663Z,95.10
2018-02-11T11:38:17.219Z,94.90
2018-02-11T11:40:45.102Z,95.10
2018-02-11T11:43:12.979Z,94.90
2018-02-11T11:45:40.873Z,94.60
2018-02-11T11:48:08.352Z,94.60
2018-02-11T11:50:35.851Z,94.50
2018-02-11T11:53:03.332Z,94.60
2018-02-11T11:55:30.823Z,94.20
2018-02-11T11:57:58.304Z,93.40
2018-02-11T12:00:26.284Z,92.40
2018-02-11T12:02:54.152Z,92.10
2018-02-11T12:05:21.734Z,92.10
2018-02-11T12:07:49.202Z,91.90
2018-02-11T12:10:16.780Z,91.40
2018-02-11T12:12:44.647Z,90.90
2018-02-11T12:15:12.134Z,90.90
2018-02-11T12:17:40.009Z,90.60
2018-02-11T12:20:07.899Z,90.40
2018-02-11T12:22:35.767Z,90.20
2018-02-11T12:25:03.678Z,89.60
2018-02-11T12:27:31.216Z,89.60
2018-02-11T12:29:58.788Z,89.80
2018-02-11T12:32:26.671Z,89.20
2018-02-11T12:34:54.168Z,89.00
2018-02-11T12:37:21.644Z,85.70
2018-02-11T12:39:49.148Z,86.00
2018-02-11T12:42:16.628Z,87.60
2018-02-11T12:44:44.118Z,87.50
2018-02-11T12:47:11.599Z,88.30
2018-02-11T12:49:39.482Z,88.90
2018-02-11T12:52:07.456Z,88.90
2018-02-11T12:54:35.342Z,88.60
2018-02-11T12:57:02.811Z,88.60
2018-02-11T12:59:30.704Z,87.30
2018-02-11T13:01:58.183Z,87.30
2018-02-11T13:04:25.720Z,87.30
2018-02-11T13:06:53.288Z,87.90
2018-02-11T13:09:20.759Z,88.30
2018-02-11T13:11:48.336Z,87.90
2018-02-11T13:14:15.815Z,87.50
2018-02-11T13:16:43.699Z,87.90
2018-02-11T13:19:11.659Z,87.40
2018-02-11T13:21:39.154Z,87.40
2018-02-11T13:24:07.033Z,87.30
2018-02-11T13:26:34.919Z,87.70
2018-02-11T13:29:02.802Z,87.70
2018-02-11T13:31:30.344Z,87.70
2018-02-11T13:33:57.829Z,87.50
2018-02-11T13:36:25.720Z,88.60
2018-02-11T13:38:53.204Z,88.60
2018-02-11T13:41:20.699Z,89.20
2018-02-11T13:43:48.176Z,89.10
2018-02-11T13:46:15.672Z,89.90
2018-02-11T13:48:43.252Z,90.40
2018-02-11T13:51:10.739Z,90.20
2018-02-11T13:53:38.451Z,90.60
2018-02-11T13:56:06.784Z,89.70
2018-02-11T13:58:34.296Z,89.60
2018-02-11T14:01:01.792Z,88.90
2018-02-11T14:03:29.269Z,88.50
2018-02-11T14:05:56.764Z,88.30
2018-02-11T14:08:24.300Z,88.40
2018-02-11T14:10:51.792Z,87.50
2018-02-11T14:13:19.360Z,86.60
2018-02-11T14:15:46.855Z,86.50
2018-02-11T14:18:14.559Z,85.00
2018-02-11T14:20:42.063Z,84.60
2018-02-11T14:23:09.551Z,84.50
2018-02-11T14:25:37.043Z,85.00
2018-02-11T14:28:04.644Z,84.70
2018-02-11T14:30:32.191Z,85.10
2018-02-11T14:33:00.098Z,84.10
2018-02-11T14:35:27.575Z,84.10
2018-02-11T14:37:55.140Z,85.00
2018-02-11T14:40:22.652Z,85.70
2018-02-11T14:42:50.149Z,86.70
2018-02-11T14:45:17.624Z,87.50
2018-02-11T14:47:45.520Z,89.10
2018-02-11T14:50:13.391Z,89.50
2018-02-11T14:52:41.392Z,90.20
2018-02-11T14:55:08.936Z,90.40
2018-02-11T14:57:36.536Z,90.70
2018-02-11T15:00:04.056Z,90.80
2018-02-11T15:02:31.543Z,90.90
2018-02-11T15:04:59.024Z,91.30
2018-02-11T15:07:27.028Z,91.40
2018-02-11T15:09:54.570Z,91.40
2018-02-11T15:12:22.149Z,91.50
2018-02-11T15:14:50.024Z,90.80
2018-02-11T15:17:17.530Z,90.90
2018-02-11T15:19:45.028Z,90.20
2018-02-11T15:22:12.536Z,90.10
2018-02-11T15:24:40.035Z,90.10
2018-02-11T15:27:07.532Z,90.20
2018-02-11T15:29:35.039Z,90.10
2018-02-11T15:32:02.537Z,90.30
2018-02-11T15:34:30.495Z,90.10
2018-02-11T15:36:57.998Z,90.10
2018-02-11T15:39:25.524Z,90.50
2018-02-11T15:41:53.012Z,90.10
2018-02-11T15:44:20.578Z,90.60
2018-02-11T15:46:48.063Z,90.60
2018-02-11T15:49:15.937Z,90.70
2018-02-11T15:51:43.923Z,90.70
2018-02-11T15:54:11.844Z,90.60
2018-02-11T15:56:39.315Z,90.60
2018-02-11T15:59:06.852Z,90.50
2018-02-11T16:01:35.567Z,90.90
2018-02-11T16:04:03.113Z,90.90
2018-02-11T16:06:30.602Z,90.70
2018-02-11T16:08:58.155Z,91.60
2018-02-11T16:11:26.056Z,86.10
2018-02-11T16:13:53.601Z,86.00
2018-02-11T16:16:21.089Z,86.50
2018-02-11T16:18:48.981Z,87.40
2018-02-11T16:21:16.461Z,87.40
2018-02-11T16:23:43.950Z,87.70
2018-02-11T16:26:11.472Z,87.80
2018-02-11T16:28:39.367Z,88.00
2018-02-11T16:31:07.332Z,88.20
2018-02-11T16:33:35.407Z,88.40
2018-02-11T16:36:02.980Z,88.40
2018-02-11T16:38:30.584Z,88.70
2018-02-11T16:40:58.156Z,88.20
2018-02-11T16:43:25.656Z,88.30
2018-02-11T16:45:53.135Z,88.20
2018-02-11T16:48:20.636Z,88.20
2018-02-11T16:50:48.119Z,88.70
2018-02-11T16:53:16.008Z,88.30
2018-02-11T16:55:43.889Z,88.60
2018-02-11T16:58:11.789Z,88.80
2018-02-11T17:00:39.290Z,88.80
2018-02-11T17:03:06.779Z,89.30
2018-02-11T17:05:34.317Z,89.40
2018-02-11T17:08:01.812Z,89.00
2018-02-11T17:10:29.287Z,88.90
2018-02-11T17:12:56.797Z,88.50
2018-02-11T17:15:24.296Z,88.60
2018-02-11T17:17:51.819Z,88.40
2018-02-11T17:20:19.712Z,87.70
2018-02-11T17:22:47.684Z,87.50
2018-02-11T17:25:15.185Z,87.50
2018-02-11T17:27:42.660Z,87.60
2018-02-11T17:30:10.162Z,87.40
2018-02-11T17:32:37.636Z,87.20
2018-02-11T17:35:05.150Z,87.20
2018-02-11T17:37:33.018Z,87.40
2018-02-11T17:40:00.913Z,86.90
2018-02-11T17:42:28.378Z,86.90
2018-02-11T17:44:56.356Z,87.90
2018-02-11T17:47:24.317Z,87.80
2018-02-11T17:49:51.811Z,87.80
2018-02-11T17:52:19.679Z,88.40
2018-02-11T17:54:47.595Z,88.20
2018-02-11T17:57:15.106Z,88.20
2018-02-11T17:59:42.601Z,88.20
2018-02-11T18:02:10.476Z,88.60
2018-02-11T18:04:37.979Z,88.60
2018-02-11T18:07:05.457Z,88.40
2018-02-11T18:09:32.959Z,88.60
2018-02-11T18:12:00.472Z,88.70
2018-02-11T18:14:28.041Z,88.50
2018-02-11T18:16:55.915Z,88.40
2018-02-11T18:19:23.809Z,88.50
2018-02-11T18:21:51.292Z,88.50
2018-02-11T18:24:18.787Z,88.60
2018-02-11T18:26:46.267Z,88.90
2018-02-11T18:29:13.754Z,89.10
2018-02-11T18:31:41.228Z,89.70
2018-02-11T18:34:08.718Z,88.80
2018-02-11T18:36:36.591Z,87.90
2018-02-11T18:39:04.089Z,87.90
2018-02-11T18:41:31.554Z,88.10
2018-02-11T18:43:59.032Z,87.70
2018-02-11T18:46:26.528Z,88.20
2018-02-11T18:48:54.042Z,88.70
2018-02-11T18:51:21.514Z,88.60
2018-02-11T18:53:48.988Z,88.50
2018-02-11T18:56:16.489Z,88.50
2018-02-11T18:58:43.959Z,88.50
2018-02-11T19:01:11.449Z,88.80
2018-02-11T19:03:38.928Z,88.90
2018-02-11T19:06:06.430Z,89.20
2018-02-11T19:08:34.318Z,89.20
2018-02-11T19:11:02.216Z,88.70
2018-02-11T19:13:30.085Z,88.60
2018-02-11T19:15:57.976Z,88.70
2018-02-11T19:18:25.456Z,88.70
2018-02-11T19:20:52.952Z,88.80
2018-02-11T19:23:20.423Z,89.20
2018-02-11T19:25:47.911Z,89.40
2018-02-11T19:28:15.392Z,89.60
2018-02-11T19:30:42.878Z,89.60
2018-02-11T19:33:10.752Z,89.50
2018-02-11T19:35:38.243Z,89.50
2018-02-11T19:38:06.200Z,89.30
2018-02-11T19:40:33.689Z,89.20
2018-02-11T19:43:01.660Z,89.90
2018-02-11T19:45:29.552Z,89.90
2018-02-11T19:47:57.428Z,89.60
2018-02-11T19:50:24.934Z,89.70
2018-02-11T19:52:52.407Z,89.50
2018-02-11T19:55:19.890Z,89.20
2018-02-11T19:57:47.364Z,89.00
2018-02-11T20:00:14.857Z,88.80
2018-02-11T20:02:42.328Z,88.90
2018-02-11T20:05:09.908Z,88.70
2018-02-11T20:07:37.474Z,88.60
2018-02-11T20:10:05.059Z,88.10
2018-02-11T20:12:32.952Z,89.00
2018-02-11T20:15:00.823Z,88.80
2018-02-11T20:17:28.719Z,88.70
2018-02-11T20:19:56.191Z,88.70
2018-02-11T20:22:23.736Z,88.80
2018-02-11T20:24:51.211Z,88.70
2018-02-11T20:27:19.184Z,88.80
2018-02-11T20:29:46.768Z,88.80
2018-02-11T20:32:14.652Z,88.40
2018-02-11T20:34:42.514Z,88.30
2018-02-11T20:37:10.009Z,88.30
2018-02-11T20:39:37.492Z,88.60
2018-02-11T20:42:04.975Z,88.80
2018-02-11T20:44:32.447Z,88.80
2018-02-11T20:46:59.945Z,89.00
2018-02-11T20:49:27.422Z,89.20
2018-02-11T20:51:55.001Z,89.30
2018-02-11T20:54:22.497Z,89.90
2018-02-11T20:56:50.460Z,90.30
2018-02-11T20:59:18.036Z,90.30
2018-02-11T21:01:45.638Z,90.40
2018-02-11T21:04:13.182Z,91.10
2018-02-11T21:06:40.676Z,91.20
2018-02-11T21:09:08.224Z,90.90
2018-02-11T21:11:36.280Z,90.70
2018-02-11T21:14:03.746Z,90.70
2018-02-11T21:16:31.234Z,90.70
2018-02-11T21:18:58.719Z,90.60
2018-02-11T21:21:26.212Z,90.70
2018-02-11T21:23:53.763Z,90.60
2018-02-11T21:26:21.257Z,91.10
2018-02-11T21:28:48.740Z,91.30
2018-02-11T21:31:16.267Z,91.20
2018-02-11T21:33:43.752Z,91.50
2018-02-11T21:36:11.627Z,91.90
2018-02-11T21:38:39.512Z,91.70
2018-02-11T21:41:07.388Z,91.50
2018-02-11T21:43:35.266Z,91.40
2018-02-11T21:46:03.166Z,91.30
2018-02-11T21:48:30.662Z,91.30
2018-02-11T21:50:58.143Z,91.30
2018-02-11T21:53:25.659Z,91.70
2018-02-11T21:55:53.527Z,91.80
2018-02-11T21:58:21.020Z,91.80
2018-02-11T22:00:48.892Z,91.90
2018-02-11T22:03:16.863Z,92.00
2018-02-11T22:05:44.436Z,92.00
2018-02-11T22:08:11.936Z,91.60
2018-02-11T22:10:39.584Z,92.00
2018-02-11T22:13:07.476Z,91.60
2018-02-11T22:15:35.356Z,91.50
2018-02-11T22:18:03.324Z,91.70
2018-02-11T22:20:30.804Z,91.70
2018-02-11T22:22:58.722Z,90.70
2018-02-11T22:25:26.200Z,90.70
2018-02-11T22:27:53.686Z,91.00
2018-02-11T22:30:21.164Z,91.10
2018-02-11T22:32:48.658Z,91.70
2018-02-11T22:35:16.636Z,91.60
2018-02-11T22:37:44.203Z,91.60
2018-02-11T22:40:11.680Z,92.20
2018-02-11T22:42:39.581Z,93.10
2018-02-11T22:45:07.132Z,93.10
2018-02-11T22:47:34.623Z,93.60
2018-02-11T22:50:02.172Z,94.30
2018-02-11T22:52:29.743Z,94.30
2018-02-11T22:54:57.224Z,94.50
2018-02-11T22:57:25.108Z,94.80
2018-02-11T22:59:53.075Z,94.70
2018-02-11T23:02:20.959Z,95.00
2018-02-11T23:04:48.852Z,94.70
2018-02-11T23:07:16.814Z,94.50
2018-02-11T23:09:44.304Z,94.50
2018-02-11T23:12:12.179Z,95.00
2018-02-11T23:14:40.074Z,94.70
2018-02-11T23:17:07.610Z,94.70
2018-02-11T23:19:47.012Z,95.10
2018-02-11T23:22:14.492Z,95.10
2018-02-11T23:24:41.988Z,94.70
2018-02-11T23:27:09.484Z,93.80
2018-02-11T23:29:37.371Z,93.20
2018-02-11T23:32:05.344Z,92.80
2018-02-11T23:34:33.246Z,92.60
2018-02-11T23:37:00.796Z,92.60
2018-02-11T23:39:28.289Z,92.60
2018-02-11T23:41:55.779Z,92.20
2018-02-11T23:44:23.267Z,92.30
2018-02-11T23:46:50.740Z,92.10
2018-02-11T23:49:18.247Z,92.10
2018-02-11T23:51:45.816Z,92.10
2018-02-11T23:54:13.307Z,92.40
2018-02-11T23:56:41.184Z,92.60
2018-02-11T23:59:09.075Z,93.10
